createdAt,value
2022-10-14T00:06:22.063Z,1080.32104
2022-10-14T00:21:24.295Z,831.56879
2022-10-14T00:36:26.697Z,620.53351
2022-10-14T00:51:28.907Z,276.59091
2022-10-14T01:06:31.155Z,111.35479
2022-10-14T01:21:33.375Z,12.57231
2022-10-14T01:36:35.571Z,0.89802
2022-10-14T01:51:37.788Z,0
2022-10-14T02:06:40.030Z,0
2022-10-14T02:21:42.229Z,0
2022-10-14T02:36:44.457Z,0
2022-10-14T02:51:46.740Z,0
2022-10-14T03:06:49.105Z,0
2022-10-14T03:21:51.303Z,0
2022-10-14T03:36:53.523Z,0
2022-10-14T03:51:55.743Z,0
2022-10-14T04:06:57.927Z,0
2022-10-14T04:22:00.169Z,0
2022-10-14T04:37:02.383Z,0
2022-10-14T04:52:04.609Z,0
2022-10-14T05:07:06.867Z,0
2022-10-14T05:22:09.091Z,0
2022-10-14T05:37:11.346Z,0
2022-10-14T05:52:13.530Z,0
2022-10-14T06:07:15.789Z,0
2022-10-14T06:22:17.983Z,0
2022-10-14T06:37:20.138Z,0
2022-10-14T06:52:22.711Z,0
2022-10-14T07:07:25.131Z,0
2022-10-14T07:22:27.305Z,0
2022-10-14T07:37:29.567Z,0
2022-10-14T07:52:31.778Z,0
2022-10-14T08:07:34.001Z,0
2022-10-14T08:22:36.221Z,0
2022-10-14T08:37:38.441Z,0
2022-10-14T08:52:40.669Z,0
2022-10-14T09:07:42.962Z,0
2022-10-14T09:22:45.263Z,0
2022-10-14T09:37:47.512Z,0
2022-10-14T09:52:49.728Z,0
2022-10-14T10:07:52.145Z,0
2022-10-14T10:22:54.335Z,0
2022-10-14T10:37:56.572Z,0
2022-10-14T10:52:58.824Z,0
2022-10-14T11:08:01.056Z,0
2022-10-14T11:23:03.371Z,0
2022-10-14T11:38:05.593Z,0
2022-10-14T11:53:07.989Z,0
2022-10-14T12:08:10.150Z,0
2022-10-14T12:23:12.402Z,0
2022-10-14T12:38:14.623Z,0
2022-10-14T12:53:16.821Z,0
2022-10-14T13:08:19.026Z,0
2022-10-14T13:23:21.244Z,0
2022-10-14T13:38:23.474Z,1.79604
2022-10-14T13:53:25.711Z,24.24661
2022-10-14T14:08:40.213Z,138.29546
2022-10-14T14:23:44.138Z,1373.97437
2022-10-14T14:38:46.353Z,1164.73511
2022-10-14T14:53:48.628Z,2571.93628
2022-10-14T15:08:51.005Z,10364.07715
2022-10-14T15:23:53.339Z,8577.91113
2022-10-14T15:38:55.558Z,17263.58398
2022-10-14T15:53:57.780Z,16405.97266
2022-10-14T16:09:00.054Z,5819.18555
2022-10-14T16:24:02.364Z,6031.11914
2022-10-14T16:39:04.693Z,6313.09814
2022-10-14T16:54:06.876Z,7193.16016
2022-10-14T17:09:09.200Z,5507.57178
2022-10-14T17:24:11.504Z,8361.4873
2022-10-14T17:39:17.642Z,7426.646
2022-10-14T17:54:25.267Z,5680.89014
2022-10-14T18:09:27.447Z,5091.7876
2022-10-14T18:24:29.700Z,5194.16211
2022-10-14T18:39:32.113Z,4845.72949
2022-10-14T18:54:34.303Z,5733.87354
2022-10-14T19:09:36.639Z,5741.05762
2022-10-14T19:24:38.877Z,5555.16699
2022-10-14T19:39:41.353Z,4338.34668
2022-10-14T19:54:43.543Z,4430.84277
2022-10-14T20:09:45.733Z,4281.771
2022-10-14T20:24:47.942Z,4989.41309
2022-10-14T20:39:50.282Z,4910.38672
2022-10-14T20:54:52.517Z,5736.56738
2022-10-14T21:09:54.740Z,4813.40039
2022-10-14T21:24:56.945Z,5934.13232
2022-10-14T21:39:59.136Z,5394.4209
2022-10-14T21:55:01.327Z,4405.69824
2022-10-14T22:10:03.570Z,4840.34131
2022-10-14T22:25:05.772Z,5315.39502
2022-10-14T22:40:08.002Z,4810.70654
2022-10-14T22:55:10.226Z,5275.88184
2022-10-14T23:10:12.461Z,5177.99756
2022-10-14T23:25:14.659Z,1975.64941
2022-10-14T23:40:17.147Z,1650.56531
2022-10-14T23:55:19.380Z,1311.11279
